Windsor Airport
CYQG : now visible

Airfield :











YOU CAN JOIN US ON...

 
LOGIN :

Register | Disclaimer

   EN    FR    IT 

 









Legend :    VFR   Marginal VFR   IFR   Intensive IFR   Very Intensive IFR
Visi :
Ceiling :
>= 8 km
>= 3000ft
5 to 8 km
1000 to 3000 ft
1500m to 5 km
500 to 1000 ft
800 to 1500m
200 to 500 ft
< 800m
< 200 ft
Symbols :   Thunderstorms  Fog  Heavy snow  Heavy precipitations  Wind > 20 kt






- Airport Elevation : 622 ft
- IATA code : YQG


CYQG - Windsor

CURRENT METAR :
  • 191727Z AUTO 27015G22KT 9SM -SN BKN025 BKN035 BKN075 OVC090 M06/M11 A3006 RMK SLP192

EXPIRED METARs :
  • 191717Z AUTO 27014G23KT 9SM BKN025 OVC090 M07/M11 A3006 RMK SLP192
  • 191709Z AUTO 26017G22KT 9SM BKN023 OVC090 M07/M11 A3006 RMK SLP191
  • 191622Z AUTO 27014G21KT 9SM BKN021 OVC085 M07/M11 A3006 RMK SLP190
  • 191600Z AUTO 26017KT 9SM -SN SCT021 OVC080 M08/M11 A3005 RMK SLP187

TAF TAF CYQG
Valid from the 19 at 18:00 until the 20 at 18:00 UTC


191741Z 1918/2018 27015G25KT P6SM -SN BKN025 BKN060
TEMPO 1918/1922 11/2SM -SHSN OVC012
BECMG 1920/1922 32012G22KT
FM192200 32012G22KT P6SM BKN030
TEMPO 1922/1924 5SM -SHSN BKN020
FM200100 33012KT P6SM SCT030
FM201000 33006KT P6SM SKC RMK FCST BASED ON AUTO OBS. NXT FCST BY 200000Z



MET'MAP, your aeronautical weather chart ! - Copyright ORBIFLY December 2007 - Disclaimer

ORBIFLY MET'MAP TEAM :

Programming & Development : Alexandra Zaïnal
Concept & original design : Baudouin d'Aumeries
Assistance for programming : Marc-Olivier Méhu
Technical & hardware support : Manuel Goepfert

Contact : metmap@orbifly.com




SOURCES & CREDITS :

   NOAA       Earth
Advisory